createdAt,value
2023-03-02T00:01:20.764Z,76.48
2023-03-02T00:03:23.834Z,76.15
2023-03-02T00:05:26.974Z,75.76
2023-03-02T00:07:33.472Z,76.08
2023-03-02T00:09:37.319Z,75.30
2023-03-02T00:11:41.818Z,75.80
2023-03-02T00:13:45.851Z,76.26
2023-03-02T00:15:51.760Z,75.69
2023-03-02T00:17:54.974Z,75.62
2023-03-02T00:20:10.360Z,76.82
2023-03-02T00:22:13.545Z,76.79
2023-03-02T00:24:16.738Z,76.56
2023-03-02T00:26:20.237Z,77.20
2023-03-02T00:28:25.030Z,76.92
2023-03-02T00:30:28.244Z,76.92
2023-03-02T00:32:31.420Z,76.27
2023-03-02T00:34:34.563Z,77.05
2023-03-02T00:36:37.682Z,76.58
2023-03-02T00:38:40.843Z,76.65
2023-03-02T00:40:45.666Z,76.71
2023-03-02T00:42:49.085Z,76.05
2023-03-02T00:44:54.645Z,76.81
2023-03-02T00:47:00.188Z,76.54
2023-03-02T00:49:03.430Z,76.74
2023-03-02T00:51:08.408Z,77.10
2023-03-02T00:53:12.315Z,76.74
2023-03-02T00:55:15.548Z,76.54
2023-03-02T00:57:18.653Z,77.10
2023-03-02T00:59:27.350Z,76.22
2023-03-02T01:01:58.112Z,76.65
2023-03-02T01:04:03.045Z,76.85
2023-03-02T01:06:07.191Z,76.98
2023-03-02T01:08:10.835Z,77.58
2023-03-02T01:10:14.707Z,76.96
2023-03-02T01:12:18.161Z,76.79
2023-03-02T01:14:22.215Z,76.62
2023-03-02T01:16:25.554Z,76.59
2023-03-02T01:18:30.184Z,77.11
2023-03-02T01:20:33.374Z,76.63
2023-03-02T01:22:36.590Z,76.74
2023-03-02T01:24:39.763Z,77.43
2023-03-02T01:26:42.822Z,77.64
2023-03-02T01:28:45.881Z,76.99
2023-03-02T01:30:49.198Z,77.98
2023-03-02T01:32:52.706Z,77.40
2023-03-02T01:34:57.140Z,77.42
2023-03-02T01:37:00.218Z,77.49
2023-03-02T01:39:04.481Z,78.22
2023-03-02T01:41:07.696Z,78.04
2023-03-02T01:43:13.699Z,77.49
2023-03-02T01:45:57.142Z,77.84
2023-03-02T01:48:25.884Z,77.42
2023-03-02T01:50:30.968Z,76.99
2023-03-02T01:52:38.364Z,77.76
2023-03-02T01:54:48.639Z,77.75
2023-03-02T01:56:58.134Z,77.09
2023-03-02T01:59:03.298Z,77.42
2023-03-02T02:01:15.357Z,78.14
2023-03-02T02:03:25.262Z,77.92
2023-03-02T02:05:28.975Z,77.87
2023-03-02T02:07:33.420Z,77.59
2023-03-02T02:09:39.413Z,77.77
2023-03-02T02:11:43.915Z,77.34
2023-03-02T02:13:47.880Z,77.66
2023-03-02T02:15:51.212Z,76.71
2023-03-02T02:17:55.636Z,77.14
2023-03-02T02:20:09.117Z,76.59
2023-03-02T02:22:12.768Z,76.84
2023-03-02T02:24:23.698Z,76.83
2023-03-02T02:26:31.431Z,77.39
2023-03-02T02:28:35.944Z,76.82
2023-03-02T02:30:40.170Z,76.79
2023-03-02T02:32:44.676Z,77.08
2023-03-02T02:34:50.281Z,76.57
2023-03-02T02:36:57.346Z,77.02
2023-03-02T02:39:03.683Z,76.96
2023-03-02T02:41:08.746Z,76.58
2023-03-02T02:43:14.549Z,77.21
2023-03-02T02:45:21.323Z,76.92
2023-03-02T02:47:24.862Z,77.24
2023-03-02T02:49:31.859Z,76.70
2023-03-02T02:51:35.595Z,77.07
2023-03-02T02:53:44.008Z,77.41
2023-03-02T02:55:47.636Z,77.21
2023-03-02T02:57:51.739Z,77.84
2023-03-02T02:59:58.087Z,78.12
2023-03-02T03:02:01.618Z,77.55
2023-03-02T03:04:06.607Z,77.41
2023-03-02T03:06:18.049Z,77.11
2023-03-02T03:08:52.047Z,77.73
2023-03-02T03:11:19.369Z,77.09
2023-03-02T03:13:22.656Z,77.31
2023-03-02T03:15:27.371Z,76.85
2023-03-02T03:17:30.741Z,77.43
2023-03-02T03:19:37.104Z,77.59
2023-03-02T03:21:41.241Z,77.18
2023-03-02T03:23:44.537Z,77.29
2023-03-02T03:25:47.723Z,77.02
2023-03-02T03:27:51.116Z,76.79
2023-03-02T03:29:55.584Z,78.03
2023-03-02T03:32:01.631Z,77.05
2023-03-02T03:34:06.160Z,77.74
2023-03-02T03:36:11.882Z,77.30
2023-03-02T03:38:15.408Z,78.06
2023-03-02T03:40:19.219Z,78.27
2023-03-02T03:42:24.132Z,77.81
2023-03-02T03:44:28.601Z,78.17
2023-03-02T03:46:32.488Z,78.41
2023-03-02T03:48:37.275Z,78.16
2023-03-02T03:50:40.590Z,78.26
2023-03-02T03:52:43.739Z,77.99
2023-03-02T03:54:52.061Z,78.71
2023-03-02T03:56:55.361Z,78.71
2023-03-02T03:59:06.348Z,78.52
2023-03-02T04:01:13.371Z,78.77
2023-03-02T04:03:16.935Z,78.92
2023-03-02T04:05:21.592Z,79.08
2023-03-02T04:07:27.930Z,79.82
2023-03-02T04:09:32.174Z,80.11
2023-03-02T04:11:37.403Z,80.26
2023-03-02T04:13:40.771Z,80.30
2023-03-02T04:15:46.814Z,80.54
2023-03-02T04:17:50.479Z,80.24
2023-03-02T04:19:55.930Z,80.64
2023-03-02T04:22:01.867Z,80.32
2023-03-02T04:24:07.435Z,80.11
2023-03-02T04:26:10.834Z,80.76
2023-03-02T04:28:17.631Z,80.75
2023-03-02T04:30:24.168Z,80.98
2023-03-02T04:32:27.285Z,80.65
2023-03-02T04:34:32.141Z,80.81
2023-03-02T04:36:37.184Z,80.82
2023-03-02T04:38:43.559Z,80.76
2023-03-02T04:40:47.122Z,80.29
2023-03-02T04:42:50.203Z,80.06
2023-03-02T04:44:53.401Z,80.82
2023-03-02T04:46:59.157Z,80.28
2023-03-02T04:49:02.251Z,80.14
2023-03-02T04:51:05.778Z,80.48
2023-03-02T04:53:08.912Z,80.36
2023-03-02T04:55:17.419Z,80.22
2023-03-02T04:57:20.698Z,80.25
2023-03-02T04:59:26.793Z,80.26
2023-03-02T05:01:30.023Z,79.76
2023-03-02T05:03:33.198Z,80.43
2023-03-02T05:05:36.348Z,80.57
2023-03-02T05:07:39.431Z,80.80
2023-03-02T05:09:42.481Z,80.10
2023-03-02T05:11:47.101Z,79.91
2023-03-02T05:13:50.587Z,80.40
2023-03-02T05:15:53.941Z,80.69
2023-03-02T05:17:57.192Z,80.40
2023-03-02T05:20:00.332Z,79.81
2023-03-02T05:22:03.419Z,79.65
2023-03-02T05:24:07.032Z,79.97
2023-03-02T05:26:10.609Z,79.88
2023-03-02T05:28:15.439Z,79.68
2023-03-02T05:30:18.924Z,79.99
2023-03-02T05:32:22.217Z,79.69
2023-03-02T05:34:25.435Z,79.65
2023-03-02T05:36:28.664Z,79.57
2023-03-02T05:38:32.468Z,78.94
2023-03-02T05:40:36.441Z,79.24
2023-03-02T05:42:39.839Z,79.50
2023-03-02T05:44:45.075Z,78.57
2023-03-02T05:46:49.569Z,79.04
2023-03-02T05:48:52.791Z,79.26
2023-03-02T05:50:55.840Z,78.11
2023-03-02T05:53:00.226Z,78.68
2023-03-02T05:55:03.494Z,78.27
2023-03-02T05:57:07.301Z,78.78
2023-03-02T05:59:10.417Z,78.58
2023-03-02T06:01:15.551Z,78.42
2023-03-02T06:03:19.360Z,78.58
2023-03-02T06:05:24.591Z,78.83
2023-03-02T06:07:29.941Z,78.33
2023-03-02T06:09:33.031Z,78.70
2023-03-02T06:11:36.071Z,78.63
2023-03-02T06:13:39.366Z,79.54
2023-03-02T06:15:43.189Z,79.75
2023-03-02T06:17:48.116Z,79.84
2023-03-02T06:19:51.635Z,79.62
2023-03-02T06:21:55.132Z,80.32
2023-03-02T06:23:59.578Z,80.19
2023-03-02T06:26:08.918Z,80.33
2023-03-02T06:28:12.028Z,80.62
2023-03-02T06:30:17.000Z,80.06
2023-03-02T06:32:20.771Z,79.89
2023-03-02T06:34:25.389Z,79.39
2023-03-02T06:36:28.702Z,79.89
2023-03-02T06:38:31.869Z,80.56
2023-03-02T06:40:35.056Z,79.63
2023-03-02T06:42:38.733Z,79.04
2023-03-02T06:44:41.799Z,78.33
2023-03-02T06:46:45.505Z,78.31
2023-03-02T06:48:48.755Z,78.30
2023-03-02T06:50:53.207Z,77.17
2023-03-02T06:52:56.447Z,76.76
2023-03-02T06:54:59.478Z,77.09
2023-03-02T06:57:02.667Z,77.43
2023-03-02T06:59:05.687Z,77.19
2023-03-02T07:01:09.061Z,77.49
2023-03-02T07:03:12.221Z,77.32
2023-03-02T07:05:15.343Z,78.11
2023-03-02T07:07:19.803Z,77.24
2023-03-02T07:09:23.271Z,78.12
2023-03-02T07:11:26.366Z,77.47
2023-03-02T07:13:30.958Z,78.00
2023-03-02T07:15:34.101Z,76.68
2023-03-02T07:17:37.195Z,76.81
2023-03-02T07:19:42.959Z,76.66
2023-03-02T07:21:46.018Z,76.28
2023-03-02T07:23:50.547Z,76.30
2023-03-02T07:25:53.804Z,75.45
2023-03-02T07:27:56.825Z,75.65
2023-03-02T07:29:59.936Z,74.36
2023-03-02T07:32:03.073Z,74.22
2023-03-02T07:34:06.150Z,74.39
2023-03-02T07:36:09.818Z,72.71
2023-03-02T07:38:12.967Z,72.54
2023-03-02T07:40:17.578Z,72.66
2023-03-02T07:42:21.149Z,71.74
2023-03-02T07:44:28.074Z,71.53
2023-03-02T07:46:33.290Z,70.94
2023-03-02T07:48:37.198Z,70.17
2023-03-02T07:50:40.397Z,69.99
2023-03-02T07:52:43.463Z,70.57
2023-03-02T07:54:46.527Z,70.16
2023-03-02T07:56:51.040Z,69.43
2023-03-02T07:58:54.186Z,69.93
2023-03-02T08:00:57.254Z,68.97
2023-03-02T08:03:00.354Z,68.97
2023-03-02T08:05:03.866Z,67.91
2023-03-02T08:07:06.962Z,68.10
2023-03-02T08:09:10.048Z,68.32
2023-03-02T08:11:15.492Z,69.10
2023-03-02T08:13:19.951Z,68.34
2023-03-02T08:15:23.459Z,66.83
2023-03-02T08:17:26.610Z,68.67
2023-03-02T08:19:29.653Z,68.67
2023-03-02T08:21:33.705Z,68.20
2023-03-02T08:23:37.148Z,67.91
2023-03-02T08:25:43.146Z,66.10
2023-03-02T08:27:46.460Z,67.05
2023-03-02T08:29:50.884Z,68.06
2023-03-02T08:31:54.074Z,67.07
2023-03-02T08:33:59.411Z,66.23
2023-03-02T08:36:04.067Z,67.22
2023-03-02T08:38:07.109Z,67.39
2023-03-02T08:40:11.475Z,67.33
2023-03-02T08:42:14.583Z,66.05
2023-03-02T08:44:18.376Z,66.45
2023-03-02T08:46:24.253Z,66.71
2023-03-02T08:48:28.109Z,67.73
2023-03-02T08:50:31.253Z,66.33
2023-03-02T08:52:34.420Z,67.59
2023-03-02T08:54:40.657Z,66.59
2023-03-02T08:56:44.555Z,66.03
2023-03-02T08:58:47.839Z,67.27
2023-03-02T09:00:51.325Z,66.46
2023-03-02T09:02:55.994Z,66.41
2023-03-02T09:04:59.562Z,66.71
2023-03-02T09:07:02.794Z,67.41
2023-03-02T09:09:06.836Z,66.52
2023-03-02T09:11:12.590Z,67.00
2023-03-02T09:13:15.847Z,66.48
2023-03-02T09:15:20.447Z,66.56
2023-03-02T09:17:23.490Z,65.65
2023-03-02T09:19:28.111Z,65.32
2023-03-02T09:21:32.741Z,65.17
2023-03-02T09:23:36.581Z,65.46
2023-03-02T09:25:39.799Z,65.28
2023-03-02T09:27:43.115Z,65.77
2023-03-02T09:29:48.677Z,65.43
2023-03-02T09:31:52.044Z,64.32
2023-03-02T09:33:57.055Z,65.79
2023-03-02T09:36:01.621Z,66.15
2023-03-02T09:38:04.826Z,65.96
2023-03-02T09:40:17.388Z,66.63
2023-03-02T09:42:43.472Z,64.97
2023-03-02T09:45:03.939Z,64.97
2023-03-02T09:47:14.575Z,65.08
2023-03-02T09:49:25.943Z,65.32
2023-03-02T09:51:39.259Z,65.59
2023-03-02T09:53:48.108Z,65.68
2023-03-02T09:55:55.373Z,64.82
2023-03-02T09:57:59.816Z,65.19
2023-03-02T10:00:18.181Z,64.42
2023-03-02T10:02:26.704Z,64.93
2023-03-02T10:04:31.498Z,65.92
2023-03-02T10:06:36.088Z,65.23
2023-03-02T10:08:41.029Z,64.54
2023-03-02T10:10:46.704Z,64.40
2023-03-02T10:13:01.403Z,64.39
2023-03-02T10:15:10.985Z,64.20
2023-03-02T10:17:27.799Z,64.47
2023-03-02T10:19:34.924Z,63.97
2023-03-02T10:21:41.628Z,63.89
2023-03-02T10:23:49.020Z,64.63
2023-03-02T10:25:54.700Z,64.39
2023-03-02T10:28:01.750Z,65.04
2023-03-02T10:30:08.933Z,64.47
2023-03-02T10:32:20.114Z,63.96
2023-03-02T10:34:26.082Z,63.14
2023-03-02T10:36:31.736Z,64.20
2023-03-02T10:38:38.346Z,63.75
2023-03-02T10:40:43.718Z,64.25
2023-03-02T10:42:46.879Z,62.50
2023-03-02T10:44:51.843Z,62.24
2023-03-02T10:46:55.050Z,64.20
2023-03-02T10:49:01.257Z,63.80
2023-03-02T10:51:04.684Z,63.32
2023-03-02T10:53:08.413Z,64.21
2023-03-02T10:55:15.517Z,63.15
2023-03-02T10:57:29.984Z,63.01
2023-03-02T10:59:40.926Z,63.28
2023-03-02T11:01:44.079Z,63.15
2023-03-02T11:03:56.840Z,62.89
2023-03-02T11:06:11.418Z,62.56
2023-03-02T11:08:18.842Z,63.15
2023-03-02T11:10:26.122Z,62.70
2023-03-02T11:12:30.140Z,63.74
2023-03-02T11:14:34.186Z,62.68
2023-03-02T11:16:37.323Z,62.82
2023-03-02T11:18:43.056Z,63.57
2023-03-02T11:20:48.951Z,63.16
2023-03-02T11:22:58.800Z,62.77
2023-03-02T11:25:05.132Z,63.19
2023-03-02T11:27:14.704Z,62.38
2023-03-02T11:29:25.969Z,63.35
2023-03-02T11:31:35.212Z,63.96
2023-03-02T11:33:42.748Z,62.61
2023-03-02T11:35:48.158Z,61.66
2023-03-02T11:37:52.935Z,62.58
2023-03-02T11:40:06.243Z,63.15
2023-03-02T11:42:17.162Z,64.32
2023-03-02T11:44:22.032Z,63.83
2023-03-02T11:46:27.463Z,62.62
2023-03-02T11:48:33.922Z,63.01
2023-03-02T11:50:42.318Z,62.09
2023-03-02T11:52:49.370Z,62.60
2023-03-02T11:54:55.613Z,62.58
2023-03-02T11:57:00.164Z,62.69
2023-03-02T11:59:08.105Z,63.32
2023-03-02T12:01:14.436Z,62.13
2023-03-02T12:03:23.268Z,60.44
2023-03-02T12:05:28.331Z,62.71
2023-03-02T12:07:31.538Z,61.84
2023-03-02T12:09:39.429Z,61.74
2023-03-02T12:11:46.795Z,62.60
2023-03-02T12:14:00.294Z,61.70
2023-03-02T12:16:05.396Z,60.42
2023-03-02T12:18:30.614Z,61.15
2023-03-02T12:20:34.132Z,60.71
2023-03-02T12:22:37.865Z,61.34
2023-03-02T12:24:42.392Z,61.39
2023-03-02T12:26:45.484Z,61.81
2023-03-02T12:28:59.629Z,61.15
2023-03-02T12:31:09.614Z,61.10
2023-03-02T12:33:21.243Z,61.53
2023-03-02T12:35:25.770Z,61.08
2023-03-02T12:37:31.913Z,60.84
2023-03-02T12:40:17.493Z,60.96
2023-03-02T12:42:38.658Z,62.43
2023-03-02T12:44:49.316Z,62.56
2023-03-02T12:46:54.631Z,63.70
2023-03-02T12:49:17.774Z,61.45
2023-03-02T12:51:24.078Z,62.71
2023-03-02T12:53:27.740Z,62.39
2023-03-02T12:55:31.120Z,61.66
2023-03-02T12:57:34.842Z,61.70
2023-03-02T12:59:38.196Z,60.44
2023-03-02T13:01:41.316Z,61.96
2023-03-02T13:03:49.575Z,61.52
2023-03-02T13:05:52.957Z,60.33
2023-03-02T13:07:59.578Z,61.13
2023-03-02T13:10:05.032Z,61.48
2023-03-02T13:12:14.144Z,61.98
2023-03-02T13:14:22.105Z,60.95
2023-03-02T13:16:27.330Z,60.51
2023-03-02T13:18:33.339Z,62.46
2023-03-02T13:20:37.907Z,61.09
2023-03-02T13:22:41.486Z,60.90
2023-03-02T13:24:50.802Z,61.77
2023-03-02T13:26:57.056Z,61.76
2023-03-02T13:29:05.214Z,60.76
2023-03-02T13:31:19.826Z,61.59
2023-03-02T13:33:24.905Z,62.37
2023-03-02T13:35:30.330Z,63.07
2023-03-02T13:37:39.296Z,62.03
2023-03-02T13:39:42.412Z,60.88
2023-03-02T13:41:53.955Z,62.87
2023-03-02T13:43:57.453Z,61.33
2023-03-02T13:46:02.413Z,61.02
2023-03-02T13:48:15.334Z,61.05
2023-03-02T13:50:20.161Z,62.46
2023-03-02T13:52:28.416Z,60.75
2023-03-02T13:54:34.823Z,61.89
2023-03-02T13:56:40.417Z,62.20
2023-03-02T13:58:43.521Z,60.96
2023-03-02T14:00:47.028Z,62.77
2023-03-02T14:02:50.604Z,60.56
2023-03-02T14:04:53.853Z,62.10
2023-03-02T14:06:57.065Z,61.04
2023-03-02T14:09:00.208Z,62.24
2023-03-02T14:11:05.477Z,61.30
2023-03-02T14:13:11.315Z,62.09
2023-03-02T14:15:16.514Z,63.09
2023-03-02T14:17:23.255Z,61.45
2023-03-02T14:19:26.405Z,62.36
2023-03-02T14:21:29.887Z,62.40
2023-03-02T14:23:33.410Z,62.88
2023-03-02T14:25:36.532Z,62.99
2023-03-02T14:27:41.555Z,62.93
2023-03-02T14:29:46.092Z,62.45
2023-03-02T14:31:49.261Z,62.94
2023-03-02T14:33:52.445Z,63.44
2023-03-02T14:35:57.801Z,62.09
2023-03-02T14:38:00.833Z,61.70
2023-03-02T14:40:06.237Z,61.42
2023-03-02T14:42:13.190Z,62.96
2023-03-02T14:44:17.689Z,63.63
2023-03-02T14:46:20.860Z,62.55
2023-03-02T14:48:24.087Z,63.06
2023-03-02T14:50:27.223Z,61.24
2023-03-02T14:52:33.700Z,62.05
2023-03-02T14:54:41.100Z,62.83
2023-03-02T14:56:44.724Z,62.98
2023-03-02T14:58:47.948Z,61.92
2023-03-02T15:00:52.374Z,62.62
2023-03-02T15:02:55.638Z,62.42
2023-03-02T15:04:58.881Z,63.11
2023-03-02T15:07:01.933Z,62.95
2023-03-02T15:09:05.105Z,63.71
2023-03-02T15:11:08.286Z,63.50
2023-03-02T15:13:13.732Z,63.47
2023-03-02T15:15:17.056Z,63.48
2023-03-02T15:17:21.660Z,64.03
2023-03-02T15:19:24.851Z,62.97
2023-03-02T15:21:28.023Z,63.88
2023-03-02T15:23:52.002Z,62.87
2023-03-02T15:25:59.836Z,65.11
2023-03-02T15:28:02.903Z,64.20
2023-03-02T15:30:07.096Z,65.00
2023-03-02T15:32:10.206Z,65.19
2023-03-02T15:34:13.500Z,64.94
2023-03-02T15:36:16.758Z,65.28
2023-03-02T15:38:19.848Z,64.29
2023-03-02T15:40:24.325Z,64.50
2023-03-02T15:42:28.013Z,64.26
2023-03-02T15:44:31.257Z,65.29
2023-03-02T15:46:34.354Z,64.69
2023-03-02T15:48:39.684Z,64.46
2023-03-02T15:50:42.873Z,65.06
2023-03-02T15:52:48.240Z,64.51
2023-03-02T15:54:51.454Z,65.16
2023-03-02T15:56:56.242Z,64.22
2023-03-02T15:58:59.355Z,64.70
2023-03-02T16:01:07.103Z,64.57
2023-03-02T16:03:12.458Z,65.40
2023-03-02T16:05:17.513Z,63.96
2023-03-02T16:07:20.801Z,64.14
2023-03-02T16:09:24.456Z,64.04
2023-03-02T16:11:27.746Z,64.99
2023-03-02T16:13:32.453Z,65.92
2023-03-02T16:15:39.997Z,64.40
2023-03-02T16:17:43.443Z,65.27
2023-03-02T16:19:46.966Z,65.85
2023-03-02T16:21:50.134Z,66.12
2023-03-02T16:23:53.607Z,64.85
2023-03-02T16:25:56.787Z,65.32
2023-03-02T16:27:59.893Z,65.06
2023-03-02T16:30:05.632Z,64.87
2023-03-02T16:32:09.112Z,66.28
2023-03-02T16:34:12.445Z,65.65
2023-03-02T16:36:16.070Z,66.67
2023-03-02T16:38:21.181Z,65.99
2023-03-02T16:40:25.076Z,65.32
2023-03-02T16:42:30.349Z,64.75
2023-03-02T16:44:33.638Z,65.04
2023-03-02T16:46:39.466Z,64.80
2023-03-02T16:48:42.802Z,65.01
2023-03-02T16:50:46.178Z,66.27
2023-03-02T16:52:49.404Z,65.37
2023-03-02T16:54:52.543Z,64.57
2023-03-02T16:56:55.740Z,64.60
2023-03-02T16:59:00.225Z,66.57
2023-03-02T17:01:03.596Z,64.91
2023-03-02T17:03:08.118Z,64.62
2023-03-02T17:05:12.305Z,66.34
2023-03-02T17:07:15.435Z,66.22
2023-03-02T17:09:18.534Z,66.11
2023-03-02T17:11:22.206Z,66.38
2023-03-02T17:13:25.453Z,65.70
2023-03-02T17:15:28.732Z,66.47
2023-03-02T17:17:31.751Z,65.98
2023-03-02T17:19:37.217Z,65.97
2023-03-02T17:21:40.391Z,66.39
2023-03-02T17:23:44.182Z,66.10
2023-03-02T17:25:47.506Z,66.82
2023-03-02T17:27:50.761Z,66.25
2023-03-02T17:29:54.895Z,67.58
2023-03-02T17:31:58.217Z,66.70
2023-03-02T17:34:01.425Z,66.31
2023-03-02T17:36:08.588Z,68.10
2023-03-02T17:38:11.743Z,66.84
2023-03-02T17:40:16.507Z,66.53
2023-03-02T17:42:19.896Z,68.21
2023-03-02T17:44:23.062Z,66.57
2023-03-02T17:46:27.340Z,67.69
2023-03-02T17:48:30.494Z,68.48
2023-03-02T17:50:33.748Z,67.82
2023-03-02T17:52:38.259Z,68.04
2023-03-02T17:54:41.638Z,66.93
2023-03-02T17:56:44.803Z,67.86
2023-03-02T17:58:47.944Z,67.78
2023-03-02T18:00:52.988Z,67.25
2023-03-02T18:02:57.067Z,67.65
2023-03-02T18:05:00.351Z,68.81
2023-03-02T18:07:03.564Z,67.39
2023-03-02T18:09:13.710Z,68.11
2023-03-02T18:11:17.837Z,67.20
2023-03-02T18:13:21.019Z,68.09
2023-03-02T18:15:27.115Z,67.68
2023-03-02T18:17:30.237Z,68.73
2023-03-02T18:19:33.440Z,68.81
2023-03-02T18:21:37.146Z,69.43
2023-03-02T18:23:42.044Z,69.86
2023-03-02T18:25:46.735Z,70.65
2023-03-02T18:27:50.093Z,70.63
2023-03-02T18:29:53.360Z,70.04
2023-03-02T18:31:56.615Z,69.91
2023-03-02T18:33:59.965Z,69.79
2023-03-02T18:36:05.334Z,70.53
2023-03-02T18:38:10.675Z,71.42
2023-03-02T18:40:14.941Z,71.39
2023-03-02T18:42:19.412Z,70.41
2023-03-02T18:44:28.049Z,70.58
2023-03-02T18:46:32.592Z,71.87
2023-03-02T18:48:35.744Z,70.38
2023-03-02T18:50:39.631Z,71.06
2023-03-02T18:52:42.917Z,71.40
2023-03-02T18:54:47.361Z,70.87
2023-03-02T18:56:53.398Z,71.81
2023-03-02T18:59:00.903Z,71.29
2023-03-02T19:01:04.627Z,72.01
2023-03-02T19:03:07.751Z,72.21
2023-03-02T19:05:10.941Z,71.30
2023-03-02T19:07:13.991Z,72.31
2023-03-02T19:09:17.222Z,72.24
2023-03-02T19:11:20.379Z,72.08
2023-03-02T19:13:24.193Z,71.95
2023-03-02T19:15:30.141Z,72.30
2023-03-02T19:17:35.211Z,72.47
2023-03-02T19:19:38.405Z,72.46
2023-03-02T19:21:41.899Z,72.27
2023-03-02T19:23:46.564Z,72.33
2023-03-02T19:25:50.195Z,72.78
2023-03-02T19:27:53.311Z,73.45
2023-03-02T19:29:56.558Z,73.33
2023-03-02T19:32:01.262Z,73.66
2023-03-02T19:34:05.461Z,73.36
2023-03-02T19:36:09.608Z,72.88
2023-03-02T19:38:14.015Z,72.80
2023-03-02T19:40:19.049Z,72.28
2023-03-02T19:42:22.196Z,72.24
2023-03-02T19:44:26.457Z,71.73
2023-03-02T19:46:29.857Z,71.78
2023-03-02T19:48:35.577Z,71.71
2023-03-02T19:50:38.764Z,72.10
2023-03-02T19:52:42.129Z,72.05
2023-03-02T19:54:45.369Z,71.39
2023-03-02T19:56:53.409Z,71.72
2023-03-02T19:58:56.664Z,71.81
2023-03-02T20:01:00.242Z,71.78
2023-03-02T20:03:05.986Z,71.74
2023-03-02T20:05:11.450Z,70.88
2023-03-02T20:07:15.067Z,71.20
2023-03-02T20:09:20.551Z,71.06
2023-03-02T20:11:25.173Z,71.38
2023-03-02T20:13:29.265Z,71.58
2023-03-02T20:15:33.995Z,71.87
2023-03-02T20:17:37.294Z,72.18
2023-03-02T20:19:40.523Z,71.96
2023-03-02T20:21:45.049Z,72.90
2023-03-02T20:23:49.056Z,73.14
2023-03-02T20:25:53.025Z,73.16
2023-03-02T20:27:59.601Z,72.46
2023-03-02T20:30:02.829Z,73.74
2023-03-02T20:32:08.867Z,72.78
2023-03-02T20:34:15.961Z,74.08
2023-03-02T20:36:24.455Z,73.49
2023-03-02T20:38:33.300Z,73.58
2023-03-02T20:40:37.234Z,73.03
2023-03-02T20:42:41.253Z,73.70
2023-03-02T20:44:44.624Z,73.74
2023-03-02T20:46:51.485Z,73.19
2023-03-02T20:48:55.027Z,74.75
2023-03-02T20:50:58.281Z,73.86
2023-03-02T20:53:01.815Z,73.61
2023-03-02T20:55:07.631Z,73.43
2023-03-02T20:57:13.393Z,73.63
2023-03-02T20:59:17.153Z,73.69
2023-03-02T21:01:23.501Z,74.18
2023-03-02T21:03:27.021Z,74.83
2023-03-02T21:05:31.053Z,73.33
2023-03-02T21:07:35.726Z,73.70
2023-03-02T21:09:39.004Z,74.57
2023-03-02T21:11:43.617Z,74.77
2023-03-02T21:13:47.702Z,74.71
2023-03-02T21:15:51.107Z,74.68
2023-03-02T21:17:55.162Z,73.63
2023-03-02T21:19:58.512Z,74.07
2023-03-02T21:22:01.943Z,73.38
2023-03-02T21:24:05.466Z,74.00
2023-03-02T21:26:09.179Z,74.81
2023-03-02T21:28:13.663Z,74.28
2023-03-02T21:30:19.819Z,73.84
2023-03-02T21:32:23.179Z,74.50
2023-03-02T21:34:26.448Z,75.39
2023-03-02T21:36:29.703Z,75.04
2023-03-02T21:38:32.792Z,74.70
2023-03-02T21:40:40.620Z,75.14
2023-03-02T21:42:44.515Z,75.20
2023-03-02T21:44:49.950Z,74.47
2023-03-02T21:46:53.016Z,74.63
2023-03-02T21:48:56.530Z,75.77
2023-03-02T21:51:00.139Z,76.46
2023-03-02T21:53:03.339Z,76.39
2023-03-02T21:55:07.037Z,76.23
2023-03-02T21:57:10.189Z,75.91
2023-03-02T21:59:13.956Z,75.76
2023-03-02T22:01:18.644Z,76.31
2023-03-02T22:03:21.891Z,75.41
2023-03-02T22:05:25.125Z,76.71
2023-03-02T22:07:29.207Z,76.33
2023-03-02T22:09:32.359Z,76.51
2023-03-02T22:11:37.327Z,76.15
2023-03-02T22:13:40.615Z,76.45
2023-03-02T22:15:43.937Z,76.39
2023-03-02T22:17:51.179Z,76.79
2023-03-02T22:19:54.787Z,76.99
2023-03-02T22:22:03.299Z,76.81
2023-03-02T22:24:21.025Z,76.96
2023-03-02T22:26:24.425Z,76.59
2023-03-02T22:28:29.822Z,77.09
2023-03-02T22:30:38.817Z,77.07
2023-03-02T22:32:42.459Z,76.85
2023-03-02T22:34:47.963Z,77.08
2023-03-02T22:36:51.280Z,76.74
2023-03-02T22:38:56.895Z,76.85
2023-03-02T22:41:00.021Z,76.78
2023-03-02T22:43:12.024Z,77.05
2023-03-02T22:45:20.159Z,77.31
2023-03-02T22:47:23.444Z,77.47
2023-03-02T22:49:26.734Z,77.09
2023-03-02T22:51:31.553Z,77.76
2023-03-02T22:53:37.953Z,78.09
2023-03-02T22:55:43.216Z,78.22
2023-03-02T22:57:46.441Z,78.34
2023-03-02T22:59:49.833Z,78.15
2023-03-02T23:01:54.112Z,78.49
2023-03-02T23:04:01.938Z,78.88
2023-03-02T23:06:26.937Z,78.71
2023-03-02T23:08:33.407Z,78.68
2023-03-02T23:10:36.538Z,78.26
2023-03-02T23:12:43.492Z,78.60
2023-03-02T23:14:49.349Z,78.35
2023-03-02T23:16:55.057Z,78.85
2023-03-02T23:18:59.347Z,78.99
2023-03-02T23:21:02.451Z,78.26
2023-03-02T23:23:05.635Z,78.61
2023-03-02T23:25:10.665Z,78.97
2023-03-02T23:27:13.757Z,78.78
2023-03-02T23:29:17.145Z,78.74
2023-03-02T23:31:21.378Z,79.79
2023-03-02T23:33:24.693Z,79.50
2023-03-02T23:35:27.994Z,79.34
2023-03-02T23:37:31.046Z,79.47
2023-03-02T23:39:38.053Z,79.19
2023-03-02T23:41:42.901Z,78.79
2023-03-02T23:43:46.193Z,79.15
2023-03-02T23:45:49.395Z,78.80
2023-03-02T23:47:52.930Z,78.89
2023-03-02T23:49:56.241Z,79.12
2023-03-02T23:52:01.607Z,79.29
2023-03-02T23:54:05.316Z,79.04
2023-03-02T23:56:08.834Z,79.61
2023-03-02T23:58:13.452Z,79.13
